createdAt,value
2018-06-29T00:00:37.145Z,1012.58
2018-06-29T00:01:37.140Z,1012.60
2018-06-29T00:02:37.138Z,1012.61
2018-06-29T00:03:37.137Z,1012.60
2018-06-29T00:04:37.104Z,1012.63
2018-06-29T00:05:37.088Z,1012.62
2018-06-29T00:06:37.077Z,1012.58
2018-06-29T00:07:37.066Z,1012.60
2018-06-29T00:08:37.055Z,1012.57
2018-06-29T00:09:37.068Z,1012.57
2018-06-29T00:10:37.036Z,1012.56
2018-06-29T00:11:37.025Z,1012.53
2018-06-29T00:12:37.010Z,1012.58
2018-06-29T00:13:36.999Z,1012.57
2018-06-29T00:14:37.012Z,1012.54
2018-06-29T00:15:36.984Z,1012.55
2018-06-29T00:16:37.083Z,1012.52
2018-06-29T00:17:36.956Z,1012.53
2018-06-29T00:18:36.944Z,1012.50
2018-06-29T00:19:36.961Z,1012.51
2018-06-29T00:20:36.923Z,1012.55
2018-06-29T00:21:36.912Z,1012.55
2018-06-29T00:22:36.907Z,1012.61
2018-06-29T00:23:36.893Z,1012.60
2018-06-29T00:24:36.879Z,1012.59
2018-06-29T00:25:36.912Z,1012.60
2018-06-29T00:26:36.857Z,1012.61
2018-06-29T00:27:36.845Z,1012.60
2018-06-29T00:28:36.835Z,1012.62
2018-06-29T00:29:36.826Z,1012.63
2018-06-29T00:30:36.836Z,1012.61
2018-06-29T00:31:36.802Z,1012.60
2018-06-29T00:32:36.791Z,1012.58
2018-06-29T00:33:36.781Z,1012.57
2018-06-29T00:34:36.770Z,1012.60
2018-06-29T00:35:36.796Z,1012.56
2018-06-29T00:36:36.751Z,1012.59
2018-06-29T00:37:36.739Z,1012.56
2018-06-29T00:38:36.727Z,1012.55
2018-06-29T00:39:36.715Z,1012.58
2018-06-29T00:40:36.730Z,1012.58
2018-06-29T00:41:36.694Z,1012.57
2018-06-29T00:42:36.681Z,1012.58
2018-06-29T00:43:36.671Z,1012.61
2018-06-29T00:44:36.660Z,1012.60
2018-06-29T00:45:36.672Z,1012.59
2018-06-29T00:46:36.639Z,1012.60
2018-06-29T00:47:36.629Z,1012.59
2018-06-29T00:48:36.623Z,1012.55
2018-06-29T00:49:36.606Z,1012.53
2018-06-29T00:50:36.621Z,1012.53
2018-06-29T00:51:36.590Z,1012.54
2018-06-29T00:52:36.574Z,1012.53
2018-06-29T00:53:36.566Z,1012.56
2018-06-29T00:54:36.599Z,1012.57
2018-06-29T00:55:36.565Z,1012.57
2018-06-29T00:56:36.535Z,1012.52
2018-06-29T00:57:36.522Z,1012.55
2018-06-29T00:58:36.530Z,1012.55
2018-06-29T00:59:36.495Z,1012.53
2018-06-29T01:00:36.508Z,1012.50
2018-06-29T01:01:36.476Z,1012.51
2018-06-29T01:02:36.464Z,1012.55
2018-06-29T01:03:36.461Z,1012.54
2018-06-29T01:04:36.444Z,1012.56
2018-06-29T01:05:36.458Z,1012.57
2018-06-29T01:06:36.421Z,1012.56
2018-06-29T01:07:36.412Z,1012.55
2018-06-29T01:08:36.403Z,1012.53
2018-06-29T01:09:36.390Z,1012.54
2018-06-29T01:10:36.401Z,1012.52
2018-06-29T01:11:36.369Z,1012.53
2018-06-29T01:12:36.355Z,1012.54
2018-06-29T01:13:36.343Z,1012.54
2018-06-29T01:14:36.334Z,1012.54
2018-06-29T01:15:36.348Z,1012.55
2018-06-29T01:16:36.311Z,1012.59
2018-06-29T01:17:36.300Z,1012.57
2018-06-29T01:18:36.288Z,1012.55
2018-06-29T01:19:36.280Z,1012.55
2018-06-29T01:20:36.292Z,1012.56
2018-06-29T01:21:36.260Z,1012.53
2018-06-29T01:22:36.247Z,1012.53
2018-06-29T01:23:36.235Z,1012.58
2018-06-29T01:24:36.223Z,1012.59
2018-06-29T01:25:36.237Z,1012.61
2018-06-29T01:26:36.203Z,1012.63
2018-06-29T01:27:36.192Z,1012.66
2018-06-29T01:28:36.215Z,1012.67
2018-06-29T01:29:36.169Z,1012.67
2018-06-29T01:30:36.185Z,1012.67
2018-06-29T01:31:36.148Z,1012.67
2018-06-29T01:32:36.137Z,1012.63
2018-06-29T01:33:36.127Z,1012.66
2018-06-29T01:34:36.124Z,1012.67
2018-06-29T01:35:36.129Z,1012.66
2018-06-29T01:36:36.094Z,1012.65
2018-06-29T01:37:36.083Z,1012.64
2018-06-29T01:38:36.072Z,1012.69
2018-06-29T01:39:36.063Z,1012.67
2018-06-29T01:40:36.080Z,1012.63
2018-06-29T01:41:36.041Z,1012.65
2018-06-29T01:42:36.029Z,1012.62
2018-06-29T01:43:36.020Z,1012.60
2018-06-29T01:44:36.032Z,1012.55
2018-06-29T01:45:36.020Z,1012.53
2018-06-29T01:46:35.985Z,1012.56
2018-06-29T01:47:35.976Z,1012.54
2018-06-29T01:48:35.964Z,1012.58
2018-06-29T01:49:35.956Z,1012.58
2018-06-29T01:50:35.966Z,1012.56
2018-06-29T01:51:35.933Z,1012.55
2018-06-29T01:52:35.924Z,1012.57
2018-06-29T01:53:35.911Z,1012.53
2018-06-29T01:54:35.902Z,1012.51
2018-06-29T01:55:35.913Z,1012.49
2018-06-29T01:56:35.879Z,1012.51
2018-06-29T01:57:35.868Z,1012.50
2018-06-29T01:58:35.863Z,1012.52
2018-06-29T01:59:35.849Z,1012.49
2018-06-29T02:00:35.858Z,1012.50
2018-06-29T02:01:35.825Z,1012.44
2018-06-29T02:02:35.814Z,1012.45
2018-06-29T02:03:35.804Z,1012.41
2018-06-29T02:04:35.794Z,1012.46
2018-06-29T02:05:35.807Z,1012.48
2018-06-29T02:06:35.770Z,1012.43
2018-06-29T02:07:35.773Z,1012.46
2018-06-29T02:08:35.748Z,1012.50
2018-06-29T02:09:35.740Z,1012.46
2018-06-29T02:10:35.755Z,1012.46
2018-06-29T02:11:35.717Z,1012.46
2018-06-29T02:12:35.708Z,1012.49
2018-06-29T02:13:35.695Z,1012.47
2018-06-29T02:14:35.684Z,1012.44
2018-06-29T02:15:35.697Z,1012.48
2018-06-29T02:16:35.663Z,1012.44
2018-06-29T02:17:35.654Z,1012.46
2018-06-29T02:18:35.642Z,1012.43
2018-06-29T02:19:35.630Z,1012.43
2018-06-29T02:20:35.647Z,1012.41
2018-06-29T02:21:35.610Z,1012.34
2018-06-29T02:22:35.599Z,1012.33
2018-06-29T02:23:35.588Z,1012.38
2018-06-29T02:24:35.582Z,1012.38
2018-06-29T02:25:35.591Z,1012.38
2018-06-29T02:26:35.557Z,1012.36
2018-06-29T02:27:35.607Z,1012.42
2018-06-29T02:28:35.536Z,1012.36
2018-06-29T02:29:35.525Z,1012.44
2018-06-29T02:30:35.580Z,1012.43
2018-06-29T02:31:35.504Z,1012.45
2018-06-29T02:32:35.495Z,1012.43
2018-06-29T02:33:35.486Z,1012.43
2018-06-29T02:34:35.471Z,1012.46
2018-06-29T02:35:35.485Z,1012.41
2018-06-29T02:36:35.450Z,1012.46
2018-06-29T02:37:35.440Z,1012.46
2018-06-29T02:38:35.429Z,1012.50
2018-06-29T02:39:35.418Z,1012.48
2018-06-29T02:40:35.445Z,1012.44
2018-06-29T02:41:35.398Z,1012.47
2018-06-29T02:42:35.403Z,1012.47
2018-06-29T02:43:35.390Z,1012.44
2018-06-29T02:44:35.365Z,1012.48
2018-06-29T02:45:35.378Z,1012.47
2018-06-29T02:46:35.348Z,1012.48
2018-06-29T02:47:35.333Z,1012.42
2018-06-29T02:48:35.322Z,1012.46
2018-06-29T02:49:35.311Z,1012.46
2018-06-29T02:50:35.323Z,1012.46
2018-06-29T02:51:35.289Z,1012.44
2018-06-29T02:52:35.278Z,1012.45
2018-06-29T02:53:35.285Z,1012.47
2018-06-29T02:54:35.257Z,1012.47
2018-06-29T02:55:35.273Z,1012.48
2018-06-29T02:56:35.237Z,1012.45
2018-06-29T02:57:35.226Z,1012.49
2018-06-29T02:58:35.213Z,1012.46
2018-06-29T02:59:35.206Z,1012.48
2018-06-29T03:00:35.225Z,1012.47
2018-06-29T03:01:35.180Z,1012.50
2018-06-29T03:02:35.177Z,1012.51
2018-06-29T03:03:35.160Z,1012.54
2018-06-29T03:04:35.149Z,1012.53
2018-06-29T03:05:35.166Z,1012.52
2018-06-29T03:06:35.136Z,1012.52
2018-06-29T03:07:35.118Z,1012.50
2018-06-29T03:08:35.126Z,1012.52
2018-06-29T03:09:35.097Z,1012.49
2018-06-29T03:10:35.111Z,1012.49
2018-06-29T03:11:35.082Z,1012.49
2018-06-29T03:12:35.064Z,1012.53
2018-06-29T03:13:35.056Z,1012.50
2018-06-29T03:14:35.046Z,1012.47
2018-06-29T03:15:35.063Z,1012.43
2018-06-29T03:16:35.035Z,1012.42
2018-06-29T03:17:35.015Z,1012.39
2018-06-29T03:18:35.000Z,1012.41
2018-06-29T03:19:34.989Z,1012.38
2018-06-29T03:20:35.005Z,1012.35
2018-06-29T03:21:34.967Z,1012.36
2018-06-29T03:22:34.964Z,1012.33
2018-06-29T03:23:34.953Z,1012.29
2018-06-29T03:24:34.940Z,1012.30
2018-06-29T03:25:34.951Z,1012.28
2018-06-29T03:26:34.940Z,1012.28
2018-06-29T03:27:34.909Z,1012.22
2018-06-29T03:28:34.894Z,1012.22
2018-06-29T03:29:34.884Z,1012.22
2018-06-29T03:30:34.898Z,1012.22
2018-06-29T03:31:34.866Z,1012.24
2018-06-29T03:32:34.851Z,1012.21
2018-06-29T03:33:34.840Z,1012.21
2018-06-29T03:34:34.834Z,1012.17
2018-06-29T03:35:34.844Z,1012.21
2018-06-29T03:36:34.809Z,1012.17
2018-06-29T03:37:34.798Z,1012.18
2018-06-29T03:38:34.800Z,1012.19
2018-06-29T03:39:34.790Z,1012.24
2018-06-29T03:40:34.877Z,1012.28
2018-06-29T03:41:34.756Z,1012.24
2018-06-29T03:42:34.746Z,1012.26
2018-06-29T03:43:34.736Z,1012.27
2018-06-29T03:44:34.727Z,1012.27
2018-06-29T03:45:34.737Z,1012.24
2018-06-29T03:46:34.704Z,1012.27
2018-06-29T03:47:34.693Z,1012.27
2018-06-29T03:48:34.685Z,1012.27
2018-06-29T03:49:34.737Z,1012.30
2018-06-29T03:50:34.686Z,1012.33
2018-06-29T03:51:34.652Z,1012.34
2018-06-29T03:52:34.641Z,1012.37
2018-06-29T03:53:34.642Z,1012.40
2018-06-29T03:54:34.621Z,1012.41
2018-06-29T03:55:34.633Z,1012.43
2018-06-29T03:56:34.601Z,1012.48
2018-06-29T03:57:34.588Z,1012.46
2018-06-29T03:58:34.584Z,1012.46
2018-06-29T03:59:34.566Z,1012.47
2018-06-29T04:00:34.579Z,1012.47
2018-06-29T04:01:34.545Z,1012.47
2018-06-29T04:02:34.557Z,1012.47
2018-06-29T04:03:34.525Z,1012.46
2018-06-29T04:04:34.516Z,1012.40
2018-06-29T04:05:34.530Z,1012.42
2018-06-29T04:06:34.493Z,1012.39
2018-06-29T04:07:34.482Z,1012.37
2018-06-29T04:08:34.472Z,1012.42
2018-06-29T04:09:34.463Z,1012.43
2018-06-29T04:10:34.473Z,1012.42
2018-06-29T04:11:34.441Z,1012.42
2018-06-29T04:12:34.450Z,1012.44
2018-06-29T04:13:34.421Z,1012.49
2018-06-29T04:14:34.409Z,1012.44
2018-06-29T04:15:34.424Z,1012.47
2018-06-29T04:16:34.396Z,1012.44
2018-06-29T04:17:34.377Z,1012.47
2018-06-29T04:18:34.367Z,1012.41
2018-06-29T04:19:34.356Z,1012.44
2018-06-29T04:20:34.375Z,1012.45
2018-06-29T04:21:34.335Z,1012.41
2018-06-29T04:22:34.330Z,1012.40
2018-06-29T04:23:34.314Z,1012.40
2018-06-29T04:24:34.304Z,1012.44
2018-06-29T04:25:34.335Z,1012.41
2018-06-29T04:26:34.351Z,1012.42
2018-06-29T04:27:34.273Z,1012.46
2018-06-29T04:28:34.263Z,1012.46
2018-06-29T04:29:34.251Z,1012.46
2018-06-29T04:30:34.265Z,1012.47
2018-06-29T04:31:34.232Z,1012.48
2018-06-29T04:32:34.223Z,1012.50
2018-06-29T04:33:34.208Z,1012.47
2018-06-29T04:34:34.198Z,1012.48
2018-06-29T04:35:34.242Z,1012.49
2018-06-29T04:36:34.178Z,1012.49
2018-06-29T04:37:34.166Z,1012.50
2018-06-29T04:38:34.155Z,1012.52
2018-06-29T04:39:34.145Z,1012.54
2018-06-29T04:40:34.170Z,1012.51
2018-06-29T04:41:34.123Z,1012.51
2018-06-29T04:42:34.115Z,1012.49
2018-06-29T04:43:34.112Z,1012.46
2018-06-29T04:44:34.090Z,1012.44
2018-06-29T04:45:34.121Z,1012.39
2018-06-29T04:46:34.069Z,1012.45
2018-06-29T04:47:34.059Z,1012.41
2018-06-29T04:48:34.049Z,1012.42
2018-06-29T04:49:34.053Z,1012.39
2018-06-29T04:50:34.053Z,1012.44
2018-06-29T04:51:34.018Z,1012.43
2018-06-29T04:52:34.010Z,1012.45
2018-06-29T04:53:34.000Z,1012.45
2018-06-29T04:54:33.986Z,1012.42
2018-06-29T04:55:34.000Z,1012.44
2018-06-29T04:56:33.982Z,1012.47
2018-06-29T04:57:33.955Z,1012.44
2018-06-29T04:58:33.951Z,1012.43
2018-06-29T04:59:33.933Z,1012.38
2018-06-29T05:00:33.945Z,1012.38
2018-06-29T05:01:33.918Z,1012.40
2018-06-29T05:02:33.900Z,1012.40
2018-06-29T05:03:33.890Z,1012.40
2018-06-29T05:04:33.880Z,1012.38
2018-06-29T05:05:33.893Z,1012.38
2018-06-29T05:06:33.860Z,1012.35
2018-06-29T05:07:33.849Z,1012.38
2018-06-29T05:08:33.857Z,1012.38
2018-06-29T05:09:33.833Z,1012.38
2018-06-29T05:10:33.839Z,1012.41
2018-06-29T05:11:33.805Z,1012.39
2018-06-29T05:12:33.796Z,1012.38
2018-06-29T05:13:33.789Z,1012.41
2018-06-29T05:14:33.773Z,1012.40
2018-06-29T05:15:33.796Z,1012.36
2018-06-29T05:16:33.751Z,1012.35
2018-06-29T05:17:33.741Z,1012.36
2018-06-29T05:18:33.730Z,1012.34
2018-06-29T05:19:33.719Z,1012.36
2018-06-29T05:20:33.736Z,1012.35
2018-06-29T05:21:33.701Z,1012.29
2018-06-29T05:22:33.687Z,1012.33
2018-06-29T05:23:33.676Z,1012.27
2018-06-29T05:24:33.667Z,1012.26
2018-06-29T05:25:33.679Z,1012.29
2018-06-29T05:26:33.648Z,1012.29
2018-06-29T05:27:33.635Z,1012.28
2018-06-29T05:28:33.631Z,1012.34
2018-06-29T05:29:33.613Z,1012.37
2018-06-29T05:30:33.626Z,1012.40
2018-06-29T05:31:33.592Z,1012.34
2018-06-29T05:32:33.586Z,1012.28
2018-06-29T05:33:33.571Z,1012.29
2018-06-29T05:34:33.560Z,1012.25
2018-06-29T05:35:33.575Z,1012.31
2018-06-29T05:36:33.539Z,1012.31
2018-06-29T05:37:33.528Z,1012.28
2018-06-29T05:38:33.520Z,1012.34
2018-06-29T05:39:33.507Z,1012.36
2018-06-29T05:40:33.523Z,1012.35
2018-06-29T05:41:33.549Z,1012.36
2018-06-29T05:42:33.487Z,1012.35
2018-06-29T05:43:33.466Z,1012.37
2018-06-29T05:44:33.455Z,1012.39
2018-06-29T05:45:33.470Z,1012.35
2018-06-29T05:46:33.434Z,1012.35
2018-06-29T05:47:33.424Z,1012.34
2018-06-29T05:48:33.413Z,1012.30
2018-06-29T05:49:33.412Z,1012.32
2018-06-29T05:50:33.415Z,1012.36
2018-06-29T05:51:33.382Z,1012.39
2018-06-29T05:52:33.391Z,1012.37
2018-06-29T05:53:33.361Z,1012.40
2018-06-29T05:54:33.353Z,1012.43
2018-06-29T05:55:33.368Z,1012.42
2018-06-29T05:56:33.329Z,1012.46
2018-06-29T05:57:33.373Z,1012.44
2018-06-29T05:58:33.309Z,1012.45
2018-06-29T05:59:33.298Z,1012.44
2018-06-29T06:00:33.310Z,1012.43
2018-06-29T06:01:33.276Z,1012.45
2018-06-29T06:02:33.270Z,1012.43
2018-06-29T06:03:33.256Z,1012.44
2018-06-29T06:04:33.295Z,1012.43
2018-06-29T06:05:33.292Z,1012.44
2018-06-29T06:06:33.227Z,1012.43
2018-06-29T06:07:33.215Z,1012.42
2018-06-29T06:08:33.205Z,1012.43
2018-06-29T06:09:33.191Z,1012.44
2018-06-29T06:10:33.291Z,1012.40
2018-06-29T06:11:33.172Z,1012.33
2018-06-29T06:12:33.161Z,1012.40
2018-06-29T06:13:33.150Z,1012.39
2018-06-29T06:14:33.142Z,1012.40
2018-06-29T06:15:33.275Z,1012.41
2018-06-29T06:16:33.119Z,1012.40
2018-06-29T06:17:33.108Z,1012.40
2018-06-29T06:18:33.097Z,1012.37
2018-06-29T06:19:33.087Z,1012.41
2018-06-29T06:20:33.103Z,1012.46
2018-06-29T06:21:33.065Z,1012.41
2018-06-29T06:22:33.054Z,1012.45
2018-06-29T06:23:33.043Z,1012.40
2018-06-29T06:24:33.033Z,1012.37
2018-06-29T06:25:33.060Z,1012.36
2018-06-29T06:26:33.019Z,1012.36
2018-06-29T06:27:33.001Z,1012.32
2018-06-29T06:28:33.005Z,1012.36
2018-06-29T06:29:32.979Z,1012.36
2018-06-29T06:30:32.994Z,1012.33
2018-06-29T06:31:32.962Z,1012.37
2018-06-29T06:32:32.947Z,1012.37
2018-06-29T06:33:32.936Z,1012.36
2018-06-29T06:34:32.932Z,1012.34
2018-06-29T06:35:32.939Z,1012.38
2018-06-29T06:36:32.904Z,1012.36
2018-06-29T06:37:32.897Z,1012.41
2018-06-29T06:38:32.897Z,1012.43
2018-06-29T06:39:32.872Z,1012.41
2018-06-29T06:40:32.885Z,1012.40
2018-06-29T06:41:32.873Z,1012.37
2018-06-29T06:42:32.839Z,1012.43
2018-06-29T06:43:32.829Z,1012.42
2018-06-29T06:44:32.817Z,1012.42
2018-06-29T06:45:32.829Z,1012.39
2018-06-29T06:46:32.801Z,1012.40
2018-06-29T06:47:32.784Z,1012.41
2018-06-29T06:48:32.773Z,1012.41
2018-06-29T06:49:32.764Z,1012.36
2018-06-29T06:50:32.775Z,1012.38
2018-06-29T06:51:32.742Z,1012.40
2018-06-29T06:52:32.730Z,1012.44
2018-06-29T06:53:32.729Z,1012.43
2018-06-29T06:54:32.710Z,1012.41
2018-06-29T06:55:32.721Z,1012.44
2018-06-29T06:56:32.687Z,1012.43
2018-06-29T06:57:32.676Z,1012.44
2018-06-29T06:58:32.677Z,1012.37
2018-06-29T06:59:32.695Z,1012.36
2018-06-29T07:00:32.670Z,1012.35
2018-06-29T07:01:32.653Z,1012.31
2018-06-29T07:02:32.622Z,1012.32
2018-06-29T07:03:32.611Z,1012.28
2018-06-29T07:04:32.599Z,1012.27
2018-06-29T07:05:32.612Z,1012.30
2018-06-29T07:06:32.578Z,1012.28
2018-06-29T07:07:32.567Z,1012.28
2018-06-29T07:08:32.556Z,1012.28
2018-06-29T07:09:32.544Z,1012.24
2018-06-29T07:10:32.558Z,1012.28
2018-06-29T07:11:32.523Z,1012.25
2018-06-29T07:12:32.588Z,1012.27
2018-06-29T07:13:32.501Z,1012.27
2018-06-29T07:14:32.501Z,1012.23
2018-06-29T07:15:32.503Z,1012.21
2018-06-29T07:16:32.472Z,1012.20
2018-06-29T07:17:32.458Z,1012.22
2018-06-29T07:18:32.448Z,1012.26
2018-06-29T07:19:32.437Z,1012.21
2018-06-29T07:20:32.450Z,1012.24
2018-06-29T07:21:32.415Z,1012.21
2018-06-29T07:22:32.404Z,1012.20
2018-06-29T07:23:32.397Z,1012.24
2018-06-29T07:24:32.412Z,1012.27
2018-06-29T07:25:32.394Z,1012.26
2018-06-29T07:26:32.362Z,1012.23
2018-06-29T07:27:32.349Z,1012.23
2018-06-29T07:28:32.339Z,1012.24
2018-06-29T07:29:32.341Z,1012.28
2018-06-29T07:30:32.345Z,1012.22
2018-06-29T07:31:32.306Z,1012.28
2018-06-29T07:32:32.295Z,1012.21
2018-06-29T07:33:32.286Z,1012.22
2018-06-29T07:34:32.274Z,1012.21
2018-06-29T07:35:32.288Z,1012.17
2018-06-29T07:36:32.252Z,1012.18
2018-06-29T07:37:32.251Z,1012.11
2018-06-29T07:38:32.238Z,1012.15
2018-06-29T07:39:32.221Z,1012.16
2018-06-29T07:40:32.234Z,1012.12
2018-06-29T07:41:32.197Z,1012.14
2018-06-29T07:42:32.187Z,1012.13
2018-06-29T07:43:32.177Z,1012.13
2018-06-29T07:44:32.166Z,1012.13
2018-06-29T07:45:32.181Z,1012.09
2018-06-29T07:46:32.167Z,1012.11
2018-06-29T07:47:32.139Z,1012.08
2018-06-29T07:48:32.123Z,1012.08
2018-06-29T07:49:32.113Z,1012.12
2018-06-29T07:50:32.126Z,1012.13
2018-06-29T07:51:32.093Z,1012.13
2018-06-29T07:52:32.081Z,1012.12
2018-06-29T07:53:32.070Z,1012.14
2018-06-29T07:54:32.060Z,1012.13
2018-06-29T07:55:32.073Z,1012.10
2018-06-29T07:56:32.039Z,1012.10
2018-06-29T07:57:32.055Z,1012.09
2018-06-29T07:58:32.099Z,1012.12
2018-06-29T07:59:32.007Z,1012.10
2018-06-29T08:00:32.035Z,1012.12
2018-06-29T08:01:31.985Z,1012.06
2018-06-29T08:02:31.975Z,1012.07
2018-06-29T08:03:31.964Z,1012.07
2018-06-29T08:04:31.952Z,1012.06
2018-06-29T08:05:31.966Z,1012.08
2018-06-29T08:06:31.931Z,1012.15
2018-06-29T08:07:31.920Z,1012.11
2018-06-29T08:08:31.929Z,1012.09
2018-06-29T08:09:31.899Z,1012.05
2018-06-29T08:10:31.932Z,1012.06
2018-06-29T08:11:31.884Z,1012.11
2018-06-29T08:12:31.868Z,1012.06
2018-06-29T08:13:31.857Z,1012.08
2018-06-29T08:14:31.846Z,1011.98
2018-06-29T08:15:31.861Z,1011.98
2018-06-29T08:16:31.827Z,1012.06
2018-06-29T08:17:31.815Z,1012.01
2018-06-29T08:18:31.804Z,1012.02
2018-06-29T08:19:31.793Z,1011.99
2018-06-29T08:20:31.813Z,1012.03
2018-06-29T08:21:31.773Z,1011.99
2018-06-29T08:22:31.762Z,1012.02
2018-06-29T08:23:31.751Z,1012.00
2018-06-29T08:24:31.742Z,1012.01
2018-06-29T08:25:31.753Z,1011.98
2018-06-29T08:26:31.719Z,1012.02
2018-06-29T08:27:31.719Z,1011.99
2018-06-29T08:28:31.697Z,1012.00
2018-06-29T08:29:31.688Z,1011.95
2018-06-29T08:30:31.721Z,1011.92
2018-06-29T08:31:31.666Z,1011.95
2018-06-29T08:32:31.657Z,1011.93
2018-06-29T08:33:31.665Z,1011.88
2018-06-29T08:34:31.635Z,1011.88
2018-06-29T08:35:31.648Z,1011.85
2018-06-29T08:36:31.613Z,1011.88
2018-06-29T08:37:31.602Z,1011.86
2018-06-29T08:38:31.639Z,1011.88
2018-06-29T08:39:31.581Z,1011.83
2018-06-29T08:40:31.595Z,1011.84
2018-06-29T08:41:31.561Z,1011.88
2018-06-29T08:42:31.552Z,1011.80
2018-06-29T08:43:31.538Z,1011.78
2018-06-29T08:44:31.538Z,1011.83
2018-06-29T08:45:31.544Z,1011.81
2018-06-29T08:46:31.507Z,1011.85
2018-06-29T08:47:31.495Z,1011.84
2018-06-29T08:48:31.484Z,1011.84
2018-06-29T08:49:31.507Z,1011.88
2018-06-29T08:50:31.488Z,1011.84
2018-06-29T08:51:31.452Z,1011.84
2018-06-29T08:52:31.442Z,1011.82
2018-06-29T08:53:31.431Z,1011.79
2018-06-29T08:54:31.434Z,1011.81
2018-06-29T08:55:31.437Z,1011.76
2018-06-29T08:56:31.402Z,1011.77
2018-06-29T08:57:31.388Z,1011.77
2018-06-29T08:58:31.380Z,1011.76
2018-06-29T08:59:31.367Z,1011.72
2018-06-29T09:00:31.379Z,1011.76
2018-06-29T09:01:31.347Z,1011.71
2018-06-29T09:02:31.334Z,1011.72
2018-06-29T09:03:31.327Z,1011.72
2018-06-29T09:04:31.316Z,1011.69
2018-06-29T09:05:31.326Z,1011.65
2018-06-29T09:06:31.292Z,1011.66
2018-06-29T09:07:31.282Z,1011.62
2018-06-29T09:08:31.271Z,1011.64
2018-06-29T09:09:31.264Z,1011.61
2018-06-29T09:10:31.273Z,1011.61
2018-06-29T09:11:31.239Z,1011.60
2018-06-29T09:12:31.228Z,1011.57
2018-06-29T09:13:31.218Z,1011.58
2018-06-29T09:14:31.210Z,1011.50
2018-06-29T09:15:31.223Z,1011.51
2018-06-29T09:16:31.187Z,1011.46
2018-06-29T09:17:31.178Z,1011.47
2018-06-29T09:18:31.165Z,1011.47
2018-06-29T09:19:31.155Z,1011.49
2018-06-29T09:20:31.168Z,1011.44
2018-06-29T09:21:31.133Z,1011.43
2018-06-29T09:22:31.136Z,1011.47
2018-06-29T09:23:31.112Z,1011.44
2018-06-29T09:24:31.103Z,1011.43
2018-06-29T09:25:31.117Z,1011.39
2018-06-29T09:26:31.133Z,1011.39
2018-06-29T09:27:31.084Z,1011.45
2018-06-29T09:28:31.060Z,1011.46
2018-06-29T09:29:31.051Z,1011.42
2018-06-29T09:30:31.062Z,1011.40
2018-06-29T09:31:31.028Z,1011.43
2018-06-29T09:32:31.017Z,1011.39
2018-06-29T09:33:31.007Z,1011.38
2018-06-29T09:34:30.998Z,1011.42
2018-06-29T09:35:31.011Z,1011.43
2018-06-29T09:36:30.980Z,1011.39
2018-06-29T09:37:30.966Z,1011.34
2018-06-29T09:38:30.957Z,1011.40
2018-06-29T09:39:30.944Z,1011.35
2018-06-29T09:40:30.957Z,1011.40
2018-06-29T09:41:30.923Z,1011.36
2018-06-29T09:42:30.975Z,1011.37
2018-06-29T09:43:30.904Z,1011.36
2018-06-29T09:44:30.892Z,1011.38
2018-06-29T09:45:30.906Z,1011.39
2018-06-29T09:46:30.871Z,1011.33
2018-06-29T09:47:30.860Z,1011.38
2018-06-29T09:48:30.849Z,1011.39
2018-06-29T09:49:30.838Z,1011.36
2018-06-29T09:50:30.868Z,1011.32
2018-06-29T09:51:30.820Z,1011.29
2018-06-29T09:52:30.807Z,1011.27
2018-06-29T09:53:30.797Z,1011.24
2018-06-29T09:54:30.787Z,1011.21
2018-06-29T09:55:30.877Z,1011.22
2018-06-29T09:56:30.767Z,1011.21
2018-06-29T09:57:30.759Z,1011.19
2018-06-29T09:58:30.744Z,1011.22
2018-06-29T09:59:30.733Z,1011.20
2018-06-29T10:00:30.751Z,1011.21
2018-06-29T10:01:30.783Z,1011.15
2018-06-29T10:02:31.691Z,1011.15
2018-06-29T10:03:30.699Z,1011.14
2018-06-29T10:04:30.680Z,1011.11
2018-06-29T10:05:30.692Z,1011.11
2018-06-29T10:06:30.674Z,1011.09
2018-06-29T10:07:30.648Z,1011.05
2018-06-29T10:08:30.639Z,1011.04
2018-06-29T10:09:30.626Z,1011.01
2018-06-29T10:10:30.643Z,1010.96
2018-06-29T10:11:30.632Z,1010.99
2018-06-29T10:12:30.594Z,1010.96
2018-06-29T10:13:30.591Z,1010.97
2018-06-29T10:14:30.661Z,1010.96
2018-06-29T10:15:30.587Z,1010.96
2018-06-29T10:16:30.552Z,1011.00
2018-06-29T10:17:30.541Z,1010.94
2018-06-29T10:18:30.531Z,1010.91
2018-06-29T10:19:30.664Z,1010.91
2018-06-29T10:20:30.535Z,1010.93
2018-06-29T10:21:30.500Z,1010.88
2018-06-29T10:22:30.544Z,1010.90
2018-06-29T10:23:30.493Z,1010.91
2018-06-29T10:24:30.470Z,1010.91
2018-06-29T10:25:30.539Z,1010.92
2018-06-29T10:26:30.466Z,1010.92
2018-06-29T10:27:30.438Z,1010.96
2018-06-29T10:28:30.427Z,1011.01
2018-06-29T10:29:30.416Z,1011.06
2018-06-29T10:30:30.434Z,1011.18
2018-06-29T10:31:30.395Z,1011.18
2018-06-29T10:32:30.385Z,1011.20
2018-06-29T10:33:30.376Z,1011.19
2018-06-29T10:34:30.366Z,1011.19
2018-06-29T10:35:30.380Z,1011.17
2018-06-29T10:36:30.357Z,1011.17
2018-06-29T10:37:30.337Z,1011.16
2018-06-29T10:38:30.326Z,1011.34
2018-06-29T10:39:30.323Z,1011.33
2018-06-29T10:40:30.331Z,1011.40
2018-06-29T10:41:30.388Z,1011.43
2018-06-29T10:42:30.289Z,1011.45
2018-06-29T10:43:30.286Z,1011.49
2018-06-29T10:44:30.272Z,1011.51
2018-06-29T10:45:30.289Z,1011.51
2018-06-29T10:46:30.260Z,1011.53
2018-06-29T10:47:30.247Z,1011.53
2018-06-29T10:48:30.237Z,1011.50
2018-06-29T10:49:30.229Z,1011.51
2018-06-29T10:50:30.255Z,1011.50
2018-06-29T10:51:30.213Z,1011.52
2018-06-29T10:52:30.205Z,1011.48
2018-06-29T10:53:30.213Z,1011.51
2018-06-29T10:54:30.190Z,1011.54
2018-06-29T10:55:30.206Z,1011.55
2018-06-29T10:56:30.175Z,1011.56
2018-06-29T10:57:30.165Z,1011.53
2018-06-29T10:58:30.162Z,1011.53
2018-06-29T10:59:30.166Z,1011.59
2018-06-29T11:00:30.172Z,1011.54
2018-06-29T11:01:30.136Z,1011.60
2018-06-29T11:02:30.129Z,1011.59
2018-06-29T11:03:30.122Z,1011.54
2018-06-29T11:04:30.113Z,1011.54
2018-06-29T11:05:30.150Z,1011.54
2018-06-29T11:06:30.100Z,1011.55
2018-06-29T11:07:30.095Z,1011.56
2018-06-29T11:08:30.092Z,1011.58
2018-06-29T11:09:30.077Z,1011.56
2018-06-29T11:10:30.095Z,1011.50
2018-06-29T11:11:30.063Z,1011.53
2018-06-29T11:12:30.055Z,1011.53
2018-06-29T11:13:30.050Z,1011.49
2018-06-29T11:14:30.052Z,1011.49
2018-06-29T11:15:30.075Z,1011.51
2018-06-29T11:16:30.199Z,1011.44
2018-06-29T11:17:30.220Z,1011.48
2018-06-29T11:18:30.222Z,1011.49
2018-06-29T11:19:30.255Z,1011.48
2018-06-29T11:20:30.365Z,1011.48
2018-06-29T11:21:30.072Z,1011.48
2018-06-29T11:22:30.227Z,1011.48
2018-06-29T11:23:29.983Z,1011.49
2018-06-29T11:24:30.094Z,1011.50
2018-06-29T11:25:30.124Z,1011.51
2018-06-29T11:26:30.040Z,1011.50
2018-06-29T11:27:29.960Z,1011.44
2018-06-29T11:28:30.075Z,1011.41
2018-06-29T11:29:30.229Z,1011.45
2018-06-29T11:30:30.108Z,1011.42
2018-06-29T11:31:29.934Z,1011.41
2018-06-29T11:32:29.947Z,1011.41
2018-06-29T11:33:29.950Z,1011.44
2018-06-29T11:34:29.918Z,1011.40
2018-06-29T11:35:29.996Z,1011.37
2018-06-29T11:36:29.943Z,1011.35
2018-06-29T11:37:29.904Z,1011.35
2018-06-29T11:38:29.893Z,1011.31
2018-06-29T11:39:29.985Z,1011.30
2018-06-29T11:40:29.900Z,1011.37
2018-06-29T11:41:29.865Z,1011.25
2018-06-29T11:42:29.926Z,1011.19
2018-06-29T11:43:29.892Z,1011.10
2018-06-29T11:44:29.859Z,1011.14
2018-06-29T11:45:29.863Z,1011.17
2018-06-29T11:46:29.826Z,1011.16
2018-06-29T11:47:29.824Z,1011.18
2018-06-29T11:48:29.836Z,1011.06
2018-06-29T11:49:29.809Z,1011.17
2018-06-29T11:50:29.909Z,1011.13
2018-06-29T11:51:29.830Z,1011.16
2018-06-29T11:52:29.785Z,1011.12
2018-06-29T11:53:29.784Z,1011.06
2018-06-29T11:54:29.772Z,1011.08
2018-06-29T11:55:29.808Z,1010.56
2018-06-29T11:56:29.761Z,1011.03
2018-06-29T11:57:29.747Z,1011.02
2018-06-29T11:58:29.744Z,1011.03
2018-06-29T11:59:29.731Z,1011.16
2018-06-29T12:00:29.798Z,1011.00
2018-06-29T12:01:29.715Z,1010.99
2018-06-29T12:02:29.710Z,1010.90
2018-06-29T12:03:29.724Z,1010.97
2018-06-29T12:04:29.702Z,1010.95
2018-06-29T12:05:29.717Z,1010.79